To NAV CANADA Home Page Login to a new session Search on AWWS site Feedback and Comments Disclaimer Vers la page française équivalente Tips FAQ What's new on the site To the Forecasts and Observations / NOTAM section To "File a Flight Plan" website Publications and other links Update of the User's profile FIC Telephone Numbers My Weather Data Folder Route Weather Data Regional Weather Data Local Weather Data To the Forecasts and Observations / NOTAM section
Request Generated 05/04/2016 at 06:04:36 UTC . Weather information available at that time is displayed.

METAR/TAF

LONDON/ON    

METAR CYXU 040600Z 14004KT 15SM FEW090 04/03 A2974 RMK AC2 SLP075=
METAR CYXU 040500Z 15004KT 15SM FEW090 06/03 A2975 RMK AC2 SLP081=
METAR CYXU 040400Z 19006KT 15SM FEW090 07/04 A2977 RMK AC1 SLP086=

TAF CYXU 040538Z 0406/0506 18005KT P6SM SCT100
FM040900 VRB03KT P6SM SCT060 BKN100 TEMPO 0409/0415 BKN060 BKN100
FM041500 17008KT P6SM SCT060 BKN140 TEMPO 0415/0418 BKN060 BKN140
FM041800 17008KT P6SM SCT060 BKN120 TEMPO 0418/0423 P6SM -SHRA
BKN060 BKN120
FM042300 10008KT P6SM SCT050 BKN080
BECMG 0500/0502 07008KT FEW080
RMK NXT FCST BY 041200Z=
Your time UTC time
Weather data provided by Environment Canada and NAV CANADA